ヨハネスブルグ の空港の天気 - METARとTAF

ヨハネスブルグ/O.R.タンボ国際空港 ( FAOR / JNB ) - 南アフリカ ヨハネスブルグ
飛行場実況気象(Metar)
観測時間05/26 19:30 SAST (05/26 17:30 UTC)
風向・風速南南西 2m/s
視程10km以上
天気現象
なし
気温14℃
湿度44%
気圧1028hPa
METARFAOR 261730Z 21003KT CAVOK 14/02 Q1028 NOSIG
過去の天気等 Google飛行場航空写真 Wunderground天気予報

過去48時間のMETAR

飛行場予報(TAF)
発表時間: 5/26 18:00 SAST (5/26 16:00 UTC)
予報対象時間: 26日20時 SAST ~ 28日2時 SAST
風向・風速不定 2m/s
視程10km以上
なし
27日9時 SAST ~ 27日11時 SAST に徐々に
風向・風速北北西 5m/s
27日13時 SAST ~ 27日15時 SAST に徐々に
全天の4割程度の雲 雲底高度 760m
27日16時 SAST ~ 27日18時 SAST に徐々に
視程10km以上
なし
TAF FAOR 261600Z 2618/2724 VRB03KT CAVOK TX20/2712Z TN08/2704Z
BECMG 2707/2709 34010KT
BECMG 2711/2713 SCT025
BECMG 2714/2716 CAVOK